Cambridge Airport

About
Name: Cambridge Airport
Identifier:  CBG/EGSC
Serves:  Cambridge
Operator:  Marshall Aerospace
Public/Private:  Public
Local Time:  23. Aug 10:41 BST
Description: Cambridge International Airport, previously Marshall Airport Cambridge UK, is a regional airport in Cambridgeshire, England. It is located on the eastern outskirts of Cambridge, south of Newmarket Road and west of the village of Teversham, 1.5 NM from the centre of Cambridge and approximately 50 mi from London.
Source: Wikipedia
Location
Runways
Identifier Length (m/ft) Surface
05/23 1,965/6,446 Concrete
Flights per Day
1 flights
Distance: 684km (425mi)
Punctuality
46% (1 flights per day delayed)
Delay Average: 4 minutes
Current Weather
 21 C (Humidity: 68%)
  5kt (9km/h / 5mph) from 210°
  Few clouds at 2,700 feet (822 meter)
  9km (6 mi.)
 METAR EGSC 230920Z 21005KT 9999 FEW027 21/15 Q1025

Current Flights

Departures
Number Departure To Airline
Arrivals
Number Arrival From Airline
 BA8235 08:10 +1  Manchester  British Airways
 BA8236 17:20 +3  Gothenburg  British Airways

Current Delays

Departures
N/A
Arrivals
N/A

Destinations

Top Destinations
Airport Flights
per week
Seats
per week
  Gothenburg (GOT) 4 134 0 19
  Manchester (MAN) 2 82 0 11
  Wroclaw (WRO) 0 - 0 0

Airlines & Planes

Top Airlines
Airline Flights
per Day
Seats
per Day
  Sun Air of Scandinavia 0 30
Skytaxi 0 -
Top Plane Types
Model Flights Seats
Dornier 328 1.0/day 30/day 30.933333333333334
Boeing B767-200 0.1/day - 0